sensor_id;sensor_type;location;lat;lon;timestamp;P1;durP1;ratioP1;P2;durP2;ratioP2
5754;SDS011;2902;42.130;24.732;2022-10-28T00:01:23;13.73;;;8.47;;
5754;SDS011;2902;42.130;24.732;2022-10-28T00:03:51;10.47;;;7.77;;
5754;SDS011;2902;42.130;24.732;2022-10-28T00:06:19;13.97;;;8.03;;
5754;SDS011;2902;42.130;24.732;2022-10-28T00:08:47;10.47;;;6.83;;
5754;SDS011;2902;42.130;24.732;2022-10-28T00:11:16;8.60;;;7.70;;
5754;SDS011;2902;42.130;24.732;2022-10-28T00:13:44;10.70;;;7.37;;
5754;SDS011;2902;42.130;24.732;2022-10-28T00:16:11;9.03;;;7.47;;
5754;SDS011;2902;42.130;24.732;2022-10-28T00:18:40;12.27;;;8.23;;
5754;SDS011;2902;42.130;24.732;2022-10-28T00:21:08;10.57;;;7.17;;
5754;SDS011;2902;42.130;24.732;2022-10-28T00:23:36;11.40;;;7.40;;
5754;SDS011;2902;42.130;24.732;2022-10-28T00:26:04;8.57;;;6.73;;
5754;SDS011;2902;42.130;24.732;2022-10-28T00:28:33;11.47;;;6.73;;
5754;SDS011;2902;42.130;24.732;2022-10-28T00:31:03;8.57;;;7.23;;
5754;SDS011;2902;42.130;24.732;2022-10-28T00:33:31;11.80;;;8.27;;
5754;SDS011;2902;42.130;24.732;2022-10-28T00:36:11;9.43;;;7.40;;
5754;SDS011;2902;42.130;24.732;2022-10-28T00:38:40;13.90;;;6.50;;
5754;SDS011;2902;42.130;24.732;2022-10-28T00:41:07;10.40;;;7.23;;
5754;SDS011;2902;42.130;24.732;2022-10-28T00:43:37;13.73;;;7.80;;
5754;SDS011;2902;42.130;24.732;2022-10-28T00:46:08;11.10;;;7.70;;
5754;SDS011;2902;42.130;24.732;2022-10-28T00:48:49;10.27;;;6.57;;
5754;SDS011;2902;42.130;24.732;2022-10-28T00:51:20;18.33;;;7.10;;
5754;SDS011;2902;42.130;24.732;2022-10-28T00:53:49;11.97;;;7.73;;
5754;SDS011;2902;42.130;24.732;2022-10-28T00:56:19;10.10;;;7.23;;
5754;SDS011;2902;42.130;24.732;2022-10-28T00:58:49;10.17;;;6.60;;
5754;SDS011;2902;42.130;24.732;2022-10-28T01:01:16;13.47;;;6.73;;
5754;SDS011;2902;42.130;24.732;2022-10-28T01:03:43;10.17;;;7.50;;
5754;SDS011;2902;42.130;24.732;2022-10-28T01:06:10;9.80;;;7.20;;
5754;SDS011;2902;42.130;24.732;2022-10-28T01:08:37;18.53;;;7.33;;
5754;SDS011;2902;42.130;24.732;2022-10-28T01:16:53;12.60;;;8.30;;
5754;SDS011;2902;42.130;24.732;2022-10-28T01:22:35;12.83;;;8.17;;
5754;SDS011;2902;42.130;24.732;2022-10-28T01:25:13;10.47;;;8.77;;
5754;SDS011;2902;42.130;24.732;2022-10-28T01:27:58;15.17;;;9.60;;
5754;SDS011;2902;42.130;24.732;2022-10-28T01:30:57;16.47;;;10.60;;
5754;SDS011;2902;42.130;24.732;2022-10-28T01:33:38;17.90;;;10.30;;
5754;SDS011;2902;42.130;24.732;2022-10-28T01:36:12;14.53;;;9.90;;
5754;SDS011;2902;42.130;24.732;2022-10-28T01:38:51;18.90;;;10.63;;
5754;SDS011;2902;42.130;24.732;2022-10-28T01:41:25;18.07;;;11.90;;
5754;SDS011;2902;42.130;24.732;2022-10-28T01:43:58;16.83;;;11.70;;
5754;SDS011;2902;42.130;24.732;2022-10-28T01:46:33;16.33;;;11.77;;
5754;SDS011;2902;42.130;24.732;2022-10-28T01:49:06;20.60;;;11.47;;
5754;SDS011;2902;42.130;24.732;2022-10-28T01:51:37;17.27;;;11.33;;
5754;SDS011;2902;42.130;24.732;2022-10-28T01:54:09;19.77;;;10.77;;
5754;SDS011;2902;42.130;24.732;2022-10-28T01:56:41;12.90;;;9.47;;
5754;SDS011;2902;42.130;24.732;2022-10-28T01:59:10;17.20;;;9.83;;
5754;SDS011;2902;42.130;24.732;2022-10-28T02:01:42;18.30;;;10.90;;
5754;SDS011;2902;42.130;24.732;2022-10-28T02:04:09;21.23;;;11.30;;
5754;SDS011;2902;42.130;24.732;2022-10-28T02:06:36;20.00;;;11.40;;
5754;SDS011;2902;42.130;24.732;2022-10-28T02:09:14;22.80;;;11.90;;
5754;SDS011;2902;42.130;24.732;2022-10-28T02:11:58;26.50;;;12.57;;
5754;SDS011;2902;42.130;24.732;2022-10-28T02:14:41;19.30;;;11.30;;
5754;SDS011;2902;42.130;24.732;2022-10-28T02:17:20;26.87;;;14.20;;
5754;SDS011;2902;42.130;24.732;2022-10-28T02:19:57;24.70;;;13.60;;
5754;SDS011;2902;42.130;24.732;2022-10-28T02:22:35;35.90;;;14.47;;
5754;SDS011;2902;42.130;24.732;2022-10-28T02:25:11;25.50;;;13.53;;
5754;SDS011;2902;42.130;24.732;2022-10-28T02:27:43;22.90;;;14.53;;
5754;SDS011;2902;42.130;24.732;2022-10-28T02:30:16;30.43;;;14.47;;
5754;SDS011;2902;42.130;24.732;2022-10-28T02:32:49;25.20;;;15.37;;
5754;SDS011;2902;42.130;24.732;2022-10-28T02:35:21;35.30;;;16.30;;
5754;SDS011;2902;42.130;24.732;2022-10-28T02:37:56;29.83;;;15.93;;
5754;SDS011;2902;42.130;24.732;2022-10-28T02:40:26;30.77;;;16.30;;
5754;SDS011;2902;42.130;24.732;2022-10-28T02:42:56;23.47;;;14.87;;
5754;SDS011;2902;42.130;24.732;2022-10-28T02:45:27;23.77;;;15.13;;
5754;SDS011;2902;42.130;24.732;2022-10-28T02:47:59;25.87;;;13.93;;
5754;SDS011;2902;42.130;24.732;2022-10-28T02:50:31;36.80;;;14.70;;
5754;SDS011;2902;42.130;24.732;2022-10-28T02:53:01;18.07;;;13.57;;
5754;SDS011;2902;42.130;24.732;2022-10-28T02:55:33;22.00;;;14.80;;
5754;SDS011;2902;42.130;24.732;2022-10-28T02:58:05;20.47;;;12.70;;
5754;SDS011;2902;42.130;24.732;2022-10-28T03:00:33;22.37;;;12.20;;
5754;SDS011;2902;42.130;24.732;2022-10-28T03:03:01;21.13;;;12.73;;
5754;SDS011;2902;42.130;24.732;2022-10-28T03:05:28;18.90;;;12.97;;
5754;SDS011;2902;42.130;24.732;2022-10-28T03:07:55;25.53;;;12.27;;
5754;SDS011;2902;42.130;24.732;2022-10-28T03:10:21;21.57;;;13.20;;
5754;SDS011;2902;42.130;24.732;2022-10-28T03:12:48;18.70;;;13.63;;
5754;SDS011;2902;42.130;24.732;2022-10-28T03:15:15;18.13;;;13.27;;
5754;SDS011;2902;42.130;24.732;2022-10-28T03:17:42;17.00;;;12.57;;
5754;SDS011;2902;42.130;24.732;2022-10-28T03:20:10;24.00;;;14.17;;
5754;SDS011;2902;42.130;24.732;2022-10-28T03:22:37;18.40;;;13.30;;
5754;SDS011;2902;42.130;24.732;2022-10-28T03:25:04;18.80;;;12.97;;
5754;SDS011;2902;42.130;24.732;2022-10-28T03:27:31;17.70;;;13.00;;
5754;SDS011;2902;42.130;24.732;2022-10-28T03:29:57;15.73;;;13.03;;
5754;SDS011;2902;42.130;24.732;2022-10-28T03:32:24;18.73;;;12.77;;
5754;SDS011;2902;42.130;24.732;2022-10-28T03:34:51;16.70;;;11.93;;
5754;SDS011;2902;42.130;24.732;2022-10-28T03:37:19;17.77;;;12.90;;
5754;SDS011;2902;42.130;24.732;2022-10-28T03:39:46;13.07;;;11.67;;
5754;SDS011;2902;42.130;24.732;2022-10-28T03:42:12;19.53;;;11.80;;
5754;SDS011;2902;42.130;24.732;2022-10-28T03:44:39;18.57;;;12.90;;
5754;SDS011;2902;42.130;24.732;2022-10-28T03:47:06;19.43;;;13.03;;
5754;SDS011;2902;42.130;24.732;2022-10-28T03:49:32;18.47;;;12.47;;
5754;SDS011;2902;42.130;24.732;2022-10-28T03:51:59;27.73;;;12.40;;
5754;SDS011;2902;42.130;24.732;2022-10-28T03:54:27;19.87;;;12.70;;
5754;SDS011;2902;42.130;24.732;2022-10-28T03:56:54;81.60;;;15.53;;
5754;SDS011;2902;42.130;24.732;2022-10-28T03:59:20;27.93;;;13.97;;
5754;SDS011;2902;42.130;24.732;2022-10-28T04:01:47;17.83;;;12.43;;
5754;SDS011;2902;42.130;24.732;2022-10-28T04:04:14;24.60;;;13.20;;
5754;SDS011;2902;42.130;24.732;2022-10-28T04:06:40;23.67;;;13.83;;
5754;SDS011;2902;42.130;24.732;2022-10-28T04:09:07;20.27;;;12.70;;
5754;SDS011;2902;42.130;24.732;2022-10-28T04:11:35;28.20;;;12.87;;
5754;SDS011;2902;42.130;24.732;2022-10-28T04:14:02;43.73;;;12.50;;
5754;SDS011;2902;42.130;24.732;2022-10-28T04:16:29;45.30;;;13.60;;
5754;SDS011;2902;42.130;24.732;2022-10-28T04:18:55;18.77;;;12.27;;
5754;SDS011;2902;42.130;24.732;2022-10-28T04:21:22;23.57;;;12.07;;
5754;SDS011;2902;42.130;24.732;2022-10-28T04:23:49;25.10;;;12.47;;
5754;SDS011;2902;42.130;24.732;2022-10-28T04:26:16;20.53;;;12.93;;
5754;SDS011;2902;42.130;24.732;2022-10-28T04:28:44;25.27;;;12.83;;
5754;SDS011;2902;42.130;24.732;2022-10-28T04:31:10;22.30;;;11.27;;
5754;SDS011;2902;42.130;24.732;2022-10-28T04:33:37;17.93;;;11.17;;
5754;SDS011;2902;42.130;24.732;2022-10-28T04:36:04;28.43;;;12.60;;
5754;SDS011;2902;42.130;24.732;2022-10-28T04:38:31;24.47;;;12.13;;
5754;SDS011;2902;42.130;24.732;2022-10-28T04:40:57;20.40;;;12.30;;
5754;SDS011;2902;42.130;24.732;2022-10-28T04:43:24;21.27;;;12.43;;
5754;SDS011;2902;42.130;24.732;2022-10-28T04:45:52;39.90;;;12.77;;
5754;SDS011;2902;42.130;24.732;2022-10-28T04:48:19;27.77;;;11.90;;
5754;SDS011;2902;42.130;24.732;2022-10-28T04:50:46;30.40;;;12.93;;
5754;SDS011;2902;42.130;24.732;2022-10-28T04:53:13;39.00;;;13.97;;
5754;SDS011;2902;42.130;24.732;2022-10-28T04:55:40;34.80;;;12.37;;
5754;SDS011;2902;42.130;24.732;2022-10-28T04:58:08;23.70;;;11.90;;
5754;SDS011;2902;42.130;24.732;2022-10-28T05:00:34;41.37;;;12.77;;
5754;SDS011;2902;42.130;24.732;2022-10-28T05:03:03;24.40;;;11.90;;
5754;SDS011;2902;42.130;24.732;2022-10-28T05:05:29;29.07;;;13.10;;
5754;SDS011;2902;42.130;24.732;2022-10-28T05:07:56;28.43;;;12.77;;
5754;SDS011;2902;42.130;24.732;2022-10-28T05:10:23;36.07;;;14.03;;
5754;SDS011;2902;42.130;24.732;2022-10-28T05:12:50;26.47;;;13.20;;
5754;SDS011;2902;42.130;24.732;2022-10-28T05:15:17;50.30;;;14.07;;
5754;SDS011;2902;42.130;24.732;2022-10-28T05:17:44;39.33;;;12.97;;
5754;SDS011;2902;42.130;24.732;2022-10-28T05:20:14;35.47;;;11.87;;
5754;SDS011;2902;42.130;24.732;2022-10-28T05:22:45;31.77;;;14.90;;
5754;SDS011;2902;42.130;24.732;2022-10-28T05:25:13;53.87;;;27.47;;
5754;SDS011;2902;42.130;24.732;2022-10-28T05:27:40;57.27;;;26.13;;
5754;SDS011;2902;42.130;24.732;2022-10-28T05:30:07;33.40;;;20.30;;
5754;SDS011;2902;42.130;24.732;2022-10-28T05:32:35;43.13;;;16.10;;
5754;SDS011;2902;42.130;24.732;2022-10-28T05:35:02;17.37;;;9.87;;
5754;SDS011;2902;42.130;24.732;2022-10-28T05:37:30;27.40;;;9.13;;
5754;SDS011;2902;42.130;24.732;2022-10-28T05:39:57;41.73;;;9.20;;
5754;SDS011;2902;42.130;24.732;2022-10-28T05:42:24;15.23;;;7.43;;
5754;SDS011;2902;42.130;24.732;2022-10-28T05:44:50;17.43;;;7.53;;
5754;SDS011;2902;42.130;24.732;2022-10-28T05:47:17;17.03;;;6.87;;
5754;SDS011;2902;42.130;24.732;2022-10-28T05:49:44;12.40;;;7.67;;
5754;SDS011;2902;42.130;24.732;2022-10-28T05:52:11;20.53;;;7.40;;
5754;SDS011;2902;42.130;24.732;2022-10-28T05:54:39;17.67;;;7.97;;
5754;SDS011;2902;42.130;24.732;2022-10-28T05:57:06;11.37;;;7.03;;
5754;SDS011;2902;42.130;24.732;2022-10-28T05:59:33;25.57;;;8.00;;
5754;SDS011;2902;42.130;24.732;2022-10-28T06:02:00;16.33;;;6.30;;
5754;SDS011;2902;42.130;24.732;2022-10-28T06:04:27;12.90;;;6.83;;
5754;SDS011;2902;42.130;24.732;2022-10-28T06:06:55;10.43;;;6.60;;
5754;SDS011;2902;42.130;24.732;2022-10-28T06:09:21;11.77;;;6.33;;
5754;SDS011;2902;42.130;24.732;2022-10-28T06:11:49;13.63;;;6.80;;
5754;SDS011;2902;42.130;24.732;2022-10-28T06:14:16;12.37;;;6.93;;
5754;SDS011;2902;42.130;24.732;2022-10-28T06:16:43;92.80;;;15.43;;
5754;SDS011;2902;42.130;24.732;2022-10-28T06:19:11;18.60;;;8.20;;
5754;SDS011;2902;42.130;24.732;2022-10-28T06:21:37;17.17;;;7.43;;
5754;SDS011;2902;42.130;24.732;2022-10-28T06:24:04;27.53;;;8.87;;
5754;SDS011;2902;42.130;24.732;2022-10-28T06:26:32;34.40;;;8.20;;
5754;SDS011;2902;42.130;24.732;2022-10-28T06:29:00;25.63;;;7.37;;
5754;SDS011;2902;42.130;24.732;2022-10-28T06:31:27;31.57;;;7.70;;
5754;SDS011;2902;42.130;24.732;2022-10-28T06:33:54;88.60;;;10.87;;
5754;SDS011;2902;42.130;24.732;2022-10-28T06:36:21;16.33;;;6.70;;
5754;SDS011;2902;42.130;24.732;2022-10-28T06:38:51;26.10;;;8.60;;
5754;SDS011;2902;42.130;24.732;2022-10-28T06:41:18;19.67;;;7.17;;
5754;SDS011;2902;42.130;24.732;2022-10-28T06:43:45;19.43;;;7.13;;
5754;SDS011;2902;42.130;24.732;2022-10-28T06:46:13;17.03;;;7.07;;
5754;SDS011;2902;42.130;24.732;2022-10-28T06:48:39;10.47;;;6.73;;
5754;SDS011;2902;42.130;24.732;2022-10-28T06:51:06;52.03;;;8.17;;
5754;SDS011;2902;42.130;24.732;2022-10-28T06:53:33;158.77;;;17.10;;
5754;SDS011;2902;42.130;24.732;2022-10-28T06:55:59;10.63;;;5.80;;
5754;SDS011;2902;42.130;24.732;2022-10-28T06:58:26;12.67;;;6.33;;
5754;SDS011;2902;42.130;24.732;2022-10-28T07:00:53;9.77;;;6.00;;
5754;SDS011;2902;42.130;24.732;2022-10-28T07:03:21;8.77;;;5.37;;
5754;SDS011;2902;42.130;24.732;2022-10-28T07:05:48;9.87;;;5.00;;
5754;SDS011;2902;42.130;24.732;2022-10-28T07:08:15;11.53;;;5.23;;
5754;SDS011;2902;42.130;24.732;2022-10-28T07:10:42;18.47;;;5.80;;
5754;SDS011;2902;42.130;24.732;2022-10-28T07:13:09;18.17;;;5.90;;
5754;SDS011;2902;42.130;24.732;2022-10-28T07:15:35;12.40;;;4.57;;
5754;SDS011;2902;42.130;24.732;2022-10-28T07:18:02;8.53;;;4.60;;
5754;SDS011;2902;42.130;24.732;2022-10-28T07:20:30;16.30;;;5.47;;
5754;SDS011;2902;42.130;24.732;2022-10-28T07:22:57;415.00;;;38.07;;
5754;SDS011;2902;42.130;24.732;2022-10-28T07:25:25;17.60;;;5.53;;
5754;SDS011;2902;42.130;24.732;2022-10-28T07:27:52;39.83;;;6.80;;
5754;SDS011;2902;42.130;24.732;2022-10-28T07:30:19;35.33;;;7.40;;
5754;SDS011;2902;42.130;24.732;2022-10-28T07:32:46;21.13;;;5.40;;
5754;SDS011;2902;42.130;24.732;2022-10-28T07:35:12;10.13;;;6.00;;
5754;SDS011;2902;42.130;24.732;2022-10-28T07:37:41;14.33;;;6.63;;
5754;SDS011;2902;42.130;24.732;2022-10-28T07:40:08;4.97;;;4.50;;
5754;SDS011;2902;42.130;24.732;2022-10-28T07:42:35;10.87;;;5.00;;
5754;SDS011;2902;42.130;24.732;2022-10-28T07:45:02;8.97;;;5.10;;
5754;SDS011;2902;42.130;24.732;2022-10-28T07:47:29;7.50;;;4.80;;
5754;SDS011;2902;42.130;24.732;2022-10-28T07:49:56;131.87;;;14.80;;
5754;SDS011;2902;42.130;24.732;2022-10-28T07:52:23;12.87;;;5.10;;
5754;SDS011;2902;42.130;24.732;2022-10-28T07:54:51;36.07;;;5.83;;
5754;SDS011;2902;42.130;24.732;2022-10-28T07:57:17;13.27;;;5.27;;
5754;SDS011;2902;42.130;24.732;2022-10-28T07:59:44;28.90;;;6.17;;
5754;SDS011;2902;42.130;24.732;2022-10-28T08:02:13;17.17;;;5.30;;
5754;SDS011;2902;42.130;24.732;2022-10-28T08:04:41;24.40;;;5.27;;
5754;SDS011;2902;42.130;24.732;2022-10-28T08:07:08;23.10;;;4.87;;
5754;SDS011;2902;42.130;24.732;2022-10-28T08:09:35;18.40;;;4.60;;
5754;SDS011;2902;42.130;24.732;2022-10-28T08:12:03;11.17;;;4.23;;
5754;SDS011;2902;42.130;24.732;2022-10-28T08:14:30;11.77;;;4.37;;
5754;SDS011;2902;42.130;24.732;2022-10-28T08:16:57;18.80;;;4.70;;
5754;SDS011;2902;42.130;24.732;2022-10-28T08:19:24;5.97;;;3.90;;
5754;SDS011;2902;42.130;24.732;2022-10-28T08:21:51;8.60;;;4.20;;
5754;SDS011;2902;42.130;24.732;2022-10-28T08:24:18;11.10;;;4.40;;
5754;SDS011;2902;42.130;24.732;2022-10-28T08:26:44;15.07;;;4.90;;
5754;SDS011;2902;42.130;24.732;2022-10-28T08:29:12;8.23;;;5.03;;
5754;SDS011;2902;42.130;24.732;2022-10-28T08:31:39;10.80;;;5.07;;
5754;SDS011;2902;42.130;24.732;2022-10-28T08:34:07;14.23;;;5.53;;
5754;SDS011;2902;42.130;24.732;2022-10-28T08:36:34;11.57;;;5.33;;
5754;SDS011;2902;42.130;24.732;2022-10-28T08:39:01;6.07;;;4.13;;
5754;SDS011;2902;42.130;24.732;2022-10-28T08:41:29;14.53;;;4.57;;
5754;SDS011;2902;42.130;24.732;2022-10-28T08:44:14;21.37;;;5.53;;
5754;SDS011;2902;42.130;24.732;2022-10-28T08:47:16;6.40;;;3.77;;
5754;SDS011;2902;42.130;24.732;2022-10-28T08:49:54;11.27;;;4.30;;
5754;SDS011;2902;42.130;24.732;2022-10-28T08:52:27;20.10;;;4.40;;
5754;SDS011;2902;42.130;24.732;2022-10-28T08:54:59;18.70;;;4.57;;
5754;SDS011;2902;42.130;24.732;2022-10-28T08:57:34;9.37;;;4.23;;
5754;SDS011;2902;42.130;24.732;2022-10-28T09:00:07;11.63;;;4.17;;
5754;SDS011;2902;42.130;24.732;2022-10-28T09:02:45;6.10;;;3.53;;
5754;SDS011;2902;42.130;24.732;2022-10-28T09:05:19;33.93;;;5.10;;
5754;SDS011;2902;42.130;24.732;2022-10-28T09:07:47;12.83;;;3.90;;
5754;SDS011;2902;42.130;24.732;2022-10-28T09:10:15;12.27;;;4.17;;
5754;SDS011;2902;42.130;24.732;2022-10-28T09:12:47;4.17;;;3.73;;
5754;SDS011;2902;42.130;24.732;2022-10-28T09:15:27;12.27;;;4.57;;
5754;SDS011;2902;42.130;24.732;2022-10-28T09:18:01;14.53;;;4.90;;
5754;SDS011;2902;42.130;24.732;2022-10-28T09:20:42;5.77;;;4.73;;
5754;SDS011;2902;42.130;24.732;2022-10-28T09:23:17;11.27;;;3.70;;
5754;SDS011;2902;42.130;24.732;2022-10-28T09:25:49;5.67;;;3.77;;
5754;SDS011;2902;42.130;24.732;2022-10-28T09:28:30;5.83;;;3.90;;
5754;SDS011;2902;42.130;24.732;2022-10-28T09:31:10;12.47;;;3.93;;
5754;SDS011;2902;42.130;24.732;2022-10-28T09:33:50;6.50;;;3.87;;
5754;SDS011;2902;42.130;24.732;2022-10-28T09:36:26;5.10;;;3.60;;
5754;SDS011;2902;42.130;24.732;2022-10-28T09:38:58;5.00;;;3.27;;
5754;SDS011;2902;42.130;24.732;2022-10-28T09:41:27;6.60;;;3.90;;
5754;SDS011;2902;42.130;24.732;2022-10-28T09:43:58;19.23;;;4.87;;
5754;SDS011;2902;42.130;24.732;2022-10-28T09:46:33;4.33;;;3.80;;
5754;SDS011;2902;42.130;24.732;2022-10-28T09:49:02;16.80;;;4.83;;
5754;SDS011;2902;42.130;24.732;2022-10-28T09:51:40;17.10;;;4.43;;
5754;SDS011;2902;42.130;24.732;2022-10-28T09:54:12;8.03;;;3.90;;
5754;SDS011;2902;42.130;24.732;2022-10-28T09:56:39;4.53;;;4.10;;
5754;SDS011;2902;42.130;24.732;2022-10-28T09:59:09;4.53;;;4.13;;
5754;SDS011;2902;42.130;24.732;2022-10-28T10:01:41;9.00;;;4.13;;
5754;SDS011;2902;42.130;24.732;2022-10-28T10:04:15;54.30;;;7.57;;
5754;SDS011;2902;42.130;24.732;2022-10-28T10:06:44;5.63;;;3.80;;
5754;SDS011;2902;42.130;24.732;2022-10-28T10:09:16;11.00;;;3.80;;
5754;SDS011;2902;42.130;24.732;2022-10-28T10:11:47;200.63;;;16.80;;
5754;SDS011;2902;42.130;24.732;2022-10-28T10:14:18;5.30;;;3.80;;
5754;SDS011;2902;42.130;24.732;2022-10-28T10:16:51;8.53;;;3.70;;
5754;SDS011;2902;42.130;24.732;2022-10-28T10:19:21;11.30;;;4.70;;
5754;SDS011;2902;42.130;24.732;2022-10-28T10:21:48;7.80;;;3.77;;
5754;SDS011;2902;42.130;24.732;2022-10-28T10:24:29;8.33;;;3.73;;
5754;SDS011;2902;42.130;24.732;2022-10-28T10:26:58;3.10;;;2.90;;
5754;SDS011;2902;42.130;24.732;2022-10-28T10:29:27;5.33;;;2.80;;
5754;SDS011;2902;42.130;24.732;2022-10-28T10:32:11;3.37;;;3.07;;
5754;SDS011;2902;42.130;24.732;2022-10-28T10:34:43;8.93;;;3.40;;
5754;SDS011;2902;42.130;24.732;2022-10-28T10:37:19;3.70;;;3.40;;
5754;SDS011;2902;42.130;24.732;2022-10-28T10:39:59;5.30;;;3.23;;
5754;SDS011;2902;42.130;24.732;2022-10-28T10:42:31;5.47;;;3.47;;
5754;SDS011;2902;42.130;24.732;2022-10-28T10:45:01;3.60;;;3.30;;
5754;SDS011;2902;42.130;24.732;2022-10-28T10:47:45;5.03;;;3.20;;
5754;SDS011;2902;42.130;24.732;2022-10-28T10:50:20;5.43;;;3.07;;
5754;SDS011;2902;42.130;24.732;2022-10-28T10:52:52;9.23;;;3.67;;
5754;SDS011;2902;42.130;24.732;2022-10-28T10:55:22;7.23;;;3.30;;
5754;SDS011;2902;42.130;24.732;2022-10-28T10:57:56;4.57;;;2.63;;
5754;SDS011;2902;42.130;24.732;2022-10-28T11:00:24;5.27;;;2.80;;
5754;SDS011;2902;42.130;24.732;2022-10-28T11:02:58;2.60;;;2.40;;
5754;SDS011;2902;42.130;24.732;2022-10-28T11:05:26;3.20;;;2.40;;
5754;SDS011;2902;42.130;24.732;2022-10-28T11:07:53;6.27;;;2.80;;
5754;SDS011;2902;42.130;24.732;2022-10-28T11:10:22;2.80;;;2.30;;
5754;SDS011;2902;42.130;24.732;2022-10-28T11:12:51;4.40;;;2.60;;
5754;SDS011;2902;42.130;24.732;2022-10-28T11:15:21;2.40;;;2.13;;
5754;SDS011;2902;42.130;24.732;2022-10-28T11:17:53;9.10;;;2.40;;
5754;SDS011;2902;42.130;24.732;2022-10-28T11:20:23;6.47;;;2.50;;
5754;SDS011;2902;42.130;24.732;2022-10-28T11:22:56;2.70;;;2.50;;
5754;SDS011;2902;42.130;24.732;2022-10-28T11:25:41;3.97;;;2.50;;
5754;SDS011;2902;42.130;24.732;2022-10-28T11:28:27;3.00;;;1.70;;
5754;SDS011;2902;42.130;24.732;2022-10-28T11:31:15;5.53;;;1.90;;
5754;SDS011;2902;42.130;24.732;2022-10-28T11:34:00;2.60;;;1.83;;
5754;SDS011;2902;42.130;24.732;2022-10-28T11:36:47;2.30;;;2.10;;
5754;SDS011;2902;42.130;24.732;2022-10-28T11:39:24;12.30;;;2.23;;
5754;SDS011;2902;42.130;24.732;2022-10-28T11:42:00;2.13;;;1.97;;
5754;SDS011;2902;42.130;24.732;2022-10-28T11:44:41;8.80;;;2.10;;
5754;SDS011;2902;42.130;24.732;2022-10-28T11:50:28;1.60;;;1.50;;
5754;SDS011;2902;42.130;24.732;2022-10-28T11:53:08;18.23;;;3.27;;
5754;SDS011;2902;42.130;24.732;2022-10-28T11:55:55;21.03;;;2.73;;
5754;SDS011;2902;42.130;24.732;2022-10-28T11:58:32;6.70;;;2.20;;
5754;SDS011;2902;42.130;24.732;2022-10-28T12:01:15;2.60;;;2.40;;
5754;SDS011;2902;42.130;24.732;2022-10-28T12:04:04;2.60;;;2.03;;
5754;SDS011;2902;42.130;24.732;2022-10-28T12:06:48;4.50;;;2.47;;
5754;SDS011;2902;42.130;24.732;2022-10-28T12:09:27;9.30;;;2.70;;
5754;SDS011;2902;42.130;24.732;2022-10-28T12:12:07;4.53;;;2.00;;
5754;SDS011;2902;42.130;24.732;2022-10-28T12:14:43;9.50;;;2.37;;
5754;SDS011;2902;42.130;24.732;2022-10-28T12:17:18;8.70;;;2.53;;
5754;SDS011;2902;42.130;24.732;2022-10-28T12:19:53;4.40;;;2.13;;
5754;SDS011;2902;42.130;24.732;2022-10-28T12:22:24;4.97;;;2.50;;
5754;SDS011;2902;42.130;24.732;2022-10-28T12:24:56;2.60;;;2.40;;
5754;SDS011;2902;42.130;24.732;2022-10-28T12:27:27;2.63;;;2.43;;
5754;SDS011;2902;42.130;24.732;2022-10-28T12:29:57;3.60;;;2.37;;
5754;SDS011;2902;42.130;24.732;2022-10-28T12:32:28;3.67;;;2.07;;
5754;SDS011;2902;42.130;24.732;2022-10-28T12:34:59;4.50;;;2.30;;
5754;SDS011;2902;42.130;24.732;2022-10-28T12:37:32;2.90;;;2.23;;
5754;SDS011;2902;42.130;24.732;2022-10-28T12:40:06;8.10;;;2.43;;
5754;SDS011;2902;42.130;24.732;2022-10-28T12:42:40;13.40;;;2.70;;
5754;SDS011;2902;42.130;24.732;2022-10-28T12:45:11;3.50;;;2.40;;
5754;SDS011;2902;42.130;24.732;2022-10-28T12:47:41;3.57;;;2.30;;
5754;SDS011;2902;42.130;24.732;2022-10-28T12:50:16;4.37;;;2.53;;
5754;SDS011;2902;42.130;24.732;2022-10-28T12:52:52;13.57;;;2.80;;
5754;SDS011;2902;42.130;24.732;2022-10-28T12:55:26;4.10;;;2.27;;
5754;SDS011;2902;42.130;24.732;2022-10-28T12:58:01;3.07;;;2.50;;
5754;SDS011;2902;42.130;24.732;2022-10-28T13:00:32;3.50;;;2.70;;
5754;SDS011;2902;42.130;24.732;2022-10-28T13:03:03;4.80;;;2.70;;
5754;SDS011;2902;42.130;24.732;2022-10-28T13:05:33;4.23;;;2.40;;
5754;SDS011;2902;42.130;24.732;2022-10-28T13:11:05;2.60;;;2.40;;
5754;SDS011;2902;42.130;24.732;2022-10-28T13:13:53;3.37;;;2.27;;
5754;SDS011;2902;42.130;24.732;2022-10-28T13:16:37;6.43;;;2.30;;
5754;SDS011;2902;42.130;24.732;2022-10-28T13:22:17;4.57;;;2.20;;
5754;SDS011;2902;42.130;24.732;2022-10-28T13:25:08;5.60;;;2.57;;
5754;SDS011;2902;42.130;24.732;2022-10-28T13:27:48;5.83;;;2.50;;
5754;SDS011;2902;42.130;24.732;2022-10-28T13:30:20;2.40;;;1.90;;
5754;SDS011;2902;42.130;24.732;2022-10-28T13:32:48;2.20;;;2.10;;
5754;SDS011;2902;42.130;24.732;2022-10-28T13:35:25;10.00;;;3.07;;
5754;SDS011;2902;42.130;24.732;2022-10-28T13:37:54;6.80;;;2.17;;
5754;SDS011;2902;42.130;24.732;2022-10-28T13:40:35;2.07;;;1.93;;
5754;SDS011;2902;42.130;24.732;2022-10-28T13:53:34;3.83;;;2.70;;
5754;SDS011;2902;42.130;24.732;2022-10-28T13:56:10;3.83;;;2.63;;
5754;SDS011;2902;42.130;24.732;2022-10-28T13:58:48;6.33;;;2.83;;
5754;SDS011;2902;42.130;24.732;2022-10-28T14:01:36;6.63;;;2.97;;
5754;SDS011;2902;42.130;24.732;2022-10-28T14:04:20;4.40;;;2.40;;
5754;SDS011;2902;42.130;24.732;2022-10-28T14:06:49;4.33;;;2.70;;
5754;SDS011;2902;42.130;24.732;2022-10-28T14:09:26;3.37;;;3.03;;
5754;SDS011;2902;42.130;24.732;2022-10-28T14:12:11;41.17;;;5.10;;
5754;SDS011;2902;42.130;24.732;2022-10-28T14:14:49;13.27;;;3.80;;
5754;SDS011;2902;42.130;24.732;2022-10-28T14:17:19;8.87;;;3.30;;
5754;SDS011;2902;42.130;24.732;2022-10-28T14:19:48;3.17;;;2.60;;
5754;SDS011;2902;42.130;24.732;2022-10-28T14:22:25;4.13;;;2.90;;
5754;SDS011;2902;42.130;24.732;2022-10-28T14:24:53;6.97;;;3.03;;
5754;SDS011;2902;42.130;24.732;2022-10-28T14:27:27;13.80;;;3.33;;
5754;SDS011;2902;42.130;24.732;2022-10-28T14:35:41;4.77;;;2.60;;
5754;SDS011;2902;42.130;24.732;2022-10-28T14:38:22;11.13;;;3.10;;
5754;SDS011;2902;42.130;24.732;2022-10-28T14:41:13;5.77;;;2.70;;
5754;SDS011;2902;42.130;24.732;2022-10-28T14:43:50;4.23;;;3.00;;
5754;SDS011;2902;42.130;24.732;2022-10-28T14:46:30;8.33;;;3.63;;
5754;SDS011;2902;42.130;24.732;2022-10-28T14:49:16;17.43;;;4.97;;
5754;SDS011;2902;42.130;24.732;2022-10-28T14:51:46;13.67;;;3.77;;
5754;SDS011;2902;42.130;24.732;2022-10-28T14:54:15;20.47;;;5.00;;
5754;SDS011;2902;42.130;24.732;2022-10-28T14:56:45;17.93;;;4.93;;
5754;SDS011;2902;42.130;24.732;2022-10-28T14:59:24;20.80;;;5.37;;
5754;SDS011;2902;42.130;24.732;2022-10-28T15:01:59;19.33;;;5.17;;
5754;SDS011;2902;42.130;24.732;2022-10-28T15:04:29;10.37;;;5.03;;
5754;SDS011;2902;42.130;24.732;2022-10-28T15:06:56;13.30;;;4.87;;
5754;SDS011;2902;42.130;24.732;2022-10-28T15:09:24;5.10;;;3.27;;
5754;SDS011;2902;42.130;24.732;2022-10-28T15:11:54;15.70;;;3.80;;
5754;SDS011;2902;42.130;24.732;2022-10-28T15:14:26;25.60;;;4.70;;
5754;SDS011;2902;42.130;24.732;2022-10-28T15:16:55;25.57;;;6.10;;
5754;SDS011;2902;42.130;24.732;2022-10-28T15:19:24;30.50;;;7.40;;
5754;SDS011;2902;42.130;24.732;2022-10-28T15:22:00;43.83;;;8.10;;
5754;SDS011;2902;42.130;24.732;2022-10-28T15:24:27;44.60;;;10.20;;
5754;SDS011;2902;42.130;24.732;2022-10-28T15:26:54;46.63;;;12.97;;
5754;SDS011;2902;42.130;24.732;2022-10-28T15:29:23;56.00;;;11.63;;
5754;SDS011;2902;42.130;24.732;2022-10-28T15:32:08;36.17;;;7.60;;
5754;SDS011;2902;42.130;24.732;2022-10-28T15:34:38;27.67;;;5.53;;
5754;SDS011;2902;42.130;24.732;2022-10-28T15:37:05;73.83;;;8.80;;
5754;SDS011;2902;42.130;24.732;2022-10-28T15:39:32;47.67;;;8.03;;
5754;SDS011;2902;42.130;24.732;2022-10-28T15:41:59;51.37;;;7.67;;
5754;SDS011;2902;42.130;24.732;2022-10-28T15:44:30;23.73;;;6.90;;
5754;SDS011;2902;42.130;24.732;2022-10-28T15:47:00;35.97;;;12.20;;